createdAt,value
2023-03-15T00:00:10.319Z,98427.31
2023-03-15T00:02:36.978Z,98430.88
2023-03-15T00:05:03.773Z,98429.59
2023-03-15T00:07:30.723Z,98429.25
2023-03-15T00:09:57.880Z,98441.53
2023-03-15T00:12:24.513Z,98446.81
2023-03-15T00:14:51.555Z,98445.50
2023-03-15T00:17:18.316Z,98439.38
2023-03-15T00:19:44.936Z,98443.84
2023-03-15T00:22:11.710Z,98430.63
2023-03-15T00:24:38.360Z,98432.94
2023-03-15T00:27:06.178Z,98443.34
2023-03-15T00:29:33.189Z,98442.03
2023-03-15T00:31:59.833Z,98445.38
2023-03-15T00:34:26.584Z,98449.50
2023-03-15T00:36:57.708Z,98460.78
2023-03-15T00:39:26.001Z,98452.38
2023-03-15T00:41:57.007Z,98455.97
2023-03-15T00:44:24.742Z,98467.06
2023-03-15T00:46:51.514Z,98463.69
2023-03-15T00:49:18.505Z,98464.31
2023-03-15T00:51:45.090Z,98476.78
2023-03-15T00:54:13.999Z,98481.59
2023-03-15T00:56:41.399Z,98478.72
2023-03-15T00:59:08.838Z,98476.44
2023-03-15T01:01:35.743Z,98482.34
2023-03-15T01:04:02.372Z,98469.50
2023-03-15T01:06:29.844Z,98473.47
2023-03-15T01:08:57.478Z,98481.59
2023-03-15T01:11:26.839Z,98473.47
2023-03-15T01:13:54.751Z,98478.84
2023-03-15T01:16:22.043Z,98474.31
2023-03-15T01:18:48.835Z,98476.41
2023-03-15T01:21:16.086Z,98469.31
2023-03-15T01:23:42.916Z,98471.59
2023-03-15T01:26:12.600Z,98480.91
2023-03-15T01:28:39.405Z,98491.84
2023-03-15T01:31:06.245Z,98496.72
2023-03-15T01:33:32.974Z,98497.44
2023-03-15T01:36:05.946Z,98500.56
2023-03-15T01:38:33.656Z,98499.97
2023-03-15T01:41:00.593Z,98502.25
2023-03-15T01:43:28.876Z,98504.53
2023-03-15T01:46:25.506Z,98503.28
2023-03-15T01:48:59.926Z,98502.59
2023-03-15T01:51:46.029Z,98509.31
2023-03-15T01:54:20.009Z,98508.38
2023-03-15T01:56:54.254Z,98515.75
2023-03-15T01:59:25.460Z,98515.97
2023-03-15T02:01:54.728Z,98520.50
2023-03-15T02:04:26.121Z,98521.84
2023-03-15T02:06:59.471Z,98522.59
2023-03-15T02:09:32.824Z,98515.31
2023-03-15T02:11:59.942Z,98519.25
2023-03-15T02:14:27.019Z,98516.75
2023-03-15T02:16:53.694Z,98520.28
2023-03-15T02:19:35.582Z,98516.38
2023-03-15T02:22:14.172Z,98519.16
2023-03-15T02:24:50.400Z,98517.94
2023-03-15T02:27:24.448Z,98514.69
2023-03-15T02:29:51.266Z,98525.44
2023-03-15T02:32:17.895Z,98524.81
2023-03-15T02:34:44.584Z,98531.34
2023-03-15T02:37:11.483Z,98529.81
2023-03-15T02:39:38.064Z,98517.19
2023-03-15T02:42:05.196Z,98528.16
2023-03-15T02:44:33.063Z,98532.28
2023-03-15T02:47:07.743Z,98533.53
2023-03-15T02:49:38.668Z,98530.34
2023-03-15T02:52:05.902Z,98543.09
2023-03-15T02:54:34.482Z,98537.69
2023-03-15T02:57:02.588Z,98541.84
2023-03-15T02:59:29.297Z,98539.34
2023-03-15T03:01:55.881Z,98539.47
2023-03-15T03:04:22.844Z,98542.28
2023-03-15T03:06:49.619Z,98545.19
2023-03-15T03:09:16.330Z,98543.19
2023-03-15T03:11:42.993Z,98549.75
2023-03-15T03:14:09.604Z,98553.97
2023-03-15T03:16:36.400Z,98569.22
2023-03-15T03:19:03.324Z,98571.50
2023-03-15T03:21:30.633Z,98577.72
2023-03-15T03:23:57.380Z,98569.94
2023-03-15T03:26:28.243Z,98571.50
2023-03-15T03:28:55.976Z,98563.53
2023-03-15T03:31:25.378Z,98578.66
2023-03-15T03:33:52.737Z,98580.00
2023-03-15T03:36:19.757Z,98582.19
2023-03-15T03:38:47.291Z,98587.78
2023-03-15T03:41:15.387Z,98588.94
2023-03-15T03:43:42.331Z,98587.66
2023-03-15T03:46:09.319Z,98589.94
2023-03-15T03:48:36.040Z,98595.44
2023-03-15T03:51:02.632Z,98592.66
2023-03-15T03:53:29.249Z,98597.84
2023-03-15T03:55:55.948Z,98603.19
2023-03-15T03:58:22.782Z,98590.97
2023-03-15T04:00:54.438Z,98599.06
2023-03-15T04:03:27.406Z,98605.72
2023-03-15T04:05:55.061Z,98612.88
2023-03-15T04:08:22.363Z,98618.06
2023-03-15T04:10:54.015Z,98621.16
2023-03-15T04:13:21.529Z,98622.09
2023-03-15T04:15:48.750Z,98634.75
2023-03-15T04:18:15.719Z,98635.81
2023-03-15T04:20:49.457Z,98638.41
2023-03-15T04:23:19.304Z,98643.06
2023-03-15T04:25:49.143Z,98631.53
2023-03-15T04:28:16.048Z,98624.16
2023-03-15T04:30:43.350Z,98634.25
2023-03-15T04:33:11.081Z,98633.72
2023-03-15T04:35:39.572Z,98635.91
2023-03-15T04:38:06.863Z,98639.13
2023-03-15T04:40:35.344Z,98650.94
2023-03-15T04:43:04.065Z,98651.66
2023-03-15T04:45:31.907Z,98649.66
2023-03-15T04:47:58.930Z,98661.84
2023-03-15T04:50:25.863Z,98665.06
2023-03-15T04:52:52.610Z,98669.50
2023-03-15T04:55:19.540Z,98669.41
2023-03-15T04:57:46.192Z,98674.31
2023-03-15T05:00:14.404Z,98670.03
2023-03-15T05:02:42.144Z,98673.38
2023-03-15T05:05:09.489Z,98678.31
2023-03-15T05:07:36.658Z,98673.03
2023-03-15T05:10:04.608Z,98676.47
2023-03-15T05:12:31.690Z,98673.03
2023-03-15T05:14:58.365Z,98675.97
2023-03-15T05:17:25.047Z,98677.81
2023-03-15T05:19:52.050Z,98683.50
2023-03-15T05:22:19.352Z,98684.78
2023-03-15T05:24:45.932Z,98686.53
2023-03-15T05:27:13.804Z,98691.81
2023-03-15T05:29:40.403Z,98701.25
2023-03-15T05:32:07.368Z,98703.66
2023-03-15T05:34:34.033Z,98703.03
2023-03-15T05:37:00.864Z,98697.84
2023-03-15T05:39:27.577Z,98705.41
2023-03-15T05:41:54.202Z,98707.06
2023-03-15T05:44:20.933Z,98718.56
2023-03-15T05:46:47.589Z,98720.44
2023-03-15T05:49:14.224Z,98716.50
2023-03-15T05:51:40.876Z,98722.09
2023-03-15T05:54:07.505Z,98718.78
2023-03-15T05:56:34.138Z,98731.59
2023-03-15T05:59:03.109Z,98729.53
2023-03-15T06:01:29.688Z,98731.59
2023-03-15T06:03:56.433Z,98731.88
2023-03-15T06:06:23.054Z,98739.56
2023-03-15T06:08:49.643Z,98734.34
2023-03-15T06:11:16.189Z,98740.50
2023-03-15T06:13:43.057Z,98736.94
2023-03-15T06:16:09.630Z,98740.06
2023-03-15T06:18:36.227Z,98745.78
2023-03-15T06:21:02.830Z,98749.88
2023-03-15T06:23:29.421Z,98754.41
2023-03-15T06:25:56.096Z,98756.75
2023-03-15T06:28:22.735Z,98761.66
2023-03-15T06:30:49.413Z,98756.56
2023-03-15T06:33:16.970Z,98763.94
2023-03-15T06:35:43.832Z,98769.56
2023-03-15T06:38:12.608Z,98759.81
2023-03-15T06:40:39.641Z,98762.81
2023-03-15T06:43:06.941Z,98763.34
2023-03-15T06:45:34.394Z,98775.78
2023-03-15T06:48:01.078Z,98766.44
2023-03-15T06:50:34.452Z,98778.38
2023-03-15T06:53:11.105Z,98783.00
2023-03-15T06:55:37.932Z,98787.72
2023-03-15T06:58:04.592Z,98793.94
2023-03-15T07:00:31.288Z,98799.69
2023-03-15T07:02:58.616Z,98806.88
2023-03-15T07:05:25.344Z,98805.53
2023-03-15T07:07:51.884Z,98807.19
2023-03-15T07:10:18.674Z,98806.88
2023-03-15T07:12:45.403Z,98811.81
2023-03-15T07:15:12.307Z,98816.91
2023-03-15T07:17:39.179Z,98816.06
2023-03-15T07:20:07.319Z,98823.53
2023-03-15T07:25:07.794Z,98825.34
2023-03-15T07:27:34.675Z,98823.56
2023-03-15T07:30:01.691Z,98831.06
2023-03-15T07:32:28.489Z,98832.09
2023-03-15T07:34:58.414Z,98824.31
2023-03-15T07:37:25.475Z,98830.56
2023-03-15T07:39:52.248Z,98839.34
2023-03-15T07:42:18.923Z,98845.78
2023-03-15T07:44:45.571Z,98846.19
2023-03-15T07:47:13.030Z,98849.53
2023-03-15T07:49:39.617Z,98841.44
2023-03-15T07:52:06.608Z,98844.97
2023-03-15T07:54:34.581Z,98856.91
2023-03-15T07:57:01.550Z,98853.69
2023-03-15T07:59:28.428Z,98857.22
2023-03-15T08:01:56.022Z,98870.13
2023-03-15T08:04:23.103Z,98873.91
2023-03-15T08:06:49.872Z,98869.75
2023-03-15T08:09:16.752Z,98872.84
2023-03-15T08:11:45.273Z,98867.66
2023-03-15T08:14:12.825Z,98874.06
2023-03-15T08:16:39.694Z,98868.88
2023-03-15T08:19:06.643Z,98881.47
2023-03-15T08:21:33.953Z,98882.00
2023-03-15T08:24:01.033Z,98889.28
2023-03-15T08:26:28.402Z,98886.78
2023-03-15T08:28:56.078Z,98889.59
2023-03-15T08:31:22.878Z,98888.56
2023-03-15T08:33:49.761Z,98892.81
2023-03-15T08:36:16.602Z,98900.72
2023-03-15T08:38:43.271Z,98895.94
2023-03-15T08:41:10.702Z,98898.22
2023-03-15T08:43:38.651Z,98909.97
2023-03-15T08:46:05.634Z,98918.56
2023-03-15T08:48:32.755Z,98927.09
2023-03-15T08:51:04.429Z,98922.22
2023-03-15T08:53:31.491Z,98923.75
2023-03-15T08:55:58.527Z,98916.09
2023-03-15T08:58:28.839Z,98914.69
2023-03-15T09:00:55.909Z,98919.72
2023-03-15T09:03:23.312Z,98924.41
2023-03-15T09:05:50.040Z,98932.19
2023-03-15T09:08:21.248Z,98932.09
2023-03-15T09:10:48.377Z,98932.34
2023-03-15T09:13:15.387Z,98943.56
2023-03-15T09:15:42.510Z,98950.94
2023-03-15T09:18:10.101Z,98952.28
2023-03-15T09:20:36.845Z,98956.34
2023-03-15T09:23:03.621Z,98956.66
2023-03-15T09:25:30.936Z,98964.94
2023-03-15T09:27:57.509Z,98960.69
2023-03-15T09:30:24.573Z,98965.56
2023-03-15T09:32:51.748Z,98968.91
2023-03-15T09:35:20.551Z,98971.81
2023-03-15T09:37:48.333Z,98969.53
2023-03-15T09:40:47.574Z,98968.91
2023-03-15T09:44:04.755Z,98972.84
2023-03-15T09:46:34.382Z,98981.81
2023-03-15T09:49:10.206Z,98986.81
2023-03-15T09:51:55.625Z,98979.34
2023-03-15T09:54:29.572Z,98977.03
2023-03-15T09:57:04.513Z,98982.22
2023-03-15T09:59:42.892Z,98990.28
2023-03-15T10:02:24.062Z,98983.38
2023-03-15T10:04:58.364Z,98984.34
2023-03-15T10:07:25.365Z,98985.13
2023-03-15T10:09:52.038Z,98987.06
2023-03-15T10:12:29.345Z,98983.19
2023-03-15T10:15:18.326Z,98983.22
2023-03-15T10:18:12.009Z,98982.22
2023-03-15T10:20:46.443Z,98983.88
2023-03-15T10:23:22.841Z,98983.91
2023-03-15T10:25:51.429Z,98982.75
2023-03-15T10:28:34.812Z,98984.44
2023-03-15T10:31:21.520Z,98982.88
2023-03-15T10:33:53.758Z,98987.66
2023-03-15T10:36:24.762Z,98988.25
2023-03-15T10:38:51.765Z,98987.06
2023-03-15T10:41:39.337Z,98987.41
2023-03-15T10:44:10.721Z,98993.66
2023-03-15T10:46:38.086Z,98993.34
2023-03-15T10:49:17.030Z,98996.47
2023-03-15T10:51:48.503Z,98994.53
2023-03-15T10:54:20.671Z,98997.88
2023-03-15T10:57:03.342Z,99008.34
2023-03-15T10:59:32.395Z,99001.19
2023-03-15T11:02:20.803Z,98999.56
2023-03-15T11:05:09.494Z,99006.34
2023-03-15T11:07:39.878Z,99003.00
2023-03-15T11:10:08.469Z,99006.44
2023-03-15T11:12:35.399Z,99014.16
2023-03-15T11:15:15.840Z,99005.19
2023-03-15T11:17:45.060Z,99008.06
2023-03-15T11:20:32.390Z,99009.09
2023-03-15T11:23:00.291Z,99005.50
2023-03-15T11:25:31.727Z,99008.63
2023-03-15T11:27:59.511Z,99008.00
2023-03-15T11:30:29.873Z,99015.41
2023-03-15T11:33:02.407Z,99009.13
2023-03-15T11:35:33.293Z,99017.00
2023-03-15T11:38:15.328Z,99010.34
2023-03-15T11:40:48.331Z,99004.44
2023-03-15T11:43:34.249Z,99013.63
2023-03-15T11:46:05.388Z,99003.41
2023-03-15T11:48:42.984Z,99002.53
2023-03-15T11:51:11.681Z,99010.25
2023-03-15T11:54:29.868Z,99027.25
2023-03-15T11:56:58.427Z,99027.63
2023-03-15T11:59:33.887Z,99029.56
2023-03-15T12:02:28.817Z,99030.19
2023-03-15T12:04:57.104Z,99038.28
2023-03-15T12:07:30.095Z,99040.09
2023-03-15T12:10:18.409Z,99030.59
2023-03-15T12:12:46.821Z,99038.63
2023-03-15T12:15:40.147Z,99047.06
2023-03-15T12:18:15.787Z,99037.94
2023-03-15T12:20:50.395Z,99044.00
2023-03-15T12:23:18.457Z,99044.88
2023-03-15T12:26:03.622Z,99039.59
2023-03-15T12:28:36.639Z,99050.94
2023-03-15T12:31:16.228Z,99036.72
2023-03-15T12:34:03.969Z,99039.91
2023-03-15T12:36:35.964Z,99043.69
2023-03-15T12:39:23.067Z,99052.38
2023-03-15T12:41:51.469Z,99060.88
2023-03-15T12:44:51.623Z,99053.72
2023-03-15T12:47:19.072Z,99057.06
2023-03-15T12:49:46.365Z,99060.28
2023-03-15T12:52:16.882Z,99057.47
2023-03-15T12:55:13.432Z,99053.34
2023-03-15T12:57:47.156Z,99053.94
2023-03-15T13:00:21.717Z,99060.22
2023-03-15T13:03:00.911Z,99048.13
2023-03-15T13:05:39.471Z,99052.28
2023-03-15T13:08:19.528Z,99060.69
2023-03-15T13:11:05.015Z,99060.59
2023-03-15T13:14:08.390Z,99063.31
2023-03-15T13:16:43.795Z,99065.00
2023-03-15T13:19:17.645Z,99062.84
2023-03-15T13:22:11.806Z,99050.59
2023-03-15T13:24:46.972Z,99047.94
2023-03-15T13:27:39.068Z,99054.50
2023-03-15T13:30:31.855Z,99053.00
2023-03-15T13:33:20.392Z,99050.84
2023-03-15T13:36:01.681Z,99063.31
2023-03-15T13:38:40.429Z,99064.84
2023-03-15T13:41:23.133Z,99071.50
2023-03-15T13:43:53.503Z,99072.31
2023-03-15T13:46:23.427Z,99068.31
2023-03-15T13:48:53.607Z,99069.97
2023-03-15T13:51:32.324Z,99064.69
2023-03-15T13:54:07.832Z,99063.44
2023-03-15T13:57:01.742Z,99062.94
2023-03-15T13:59:33.685Z,99066.47
2023-03-15T14:02:02.835Z,99068.34
2023-03-15T14:04:31.747Z,99074.25
2023-03-15T14:07:25.904Z,99069.25
2023-03-15T14:10:29.616Z,99075.00
2023-03-15T14:12:58.337Z,99073.59
2023-03-15T14:15:36.669Z,99083.28
2023-03-15T14:18:15.167Z,99091.59
2023-03-15T14:20:46.375Z,99088.84
2023-03-15T14:23:18.356Z,99096.81
2023-03-15T14:25:52.262Z,99091.44
2023-03-15T14:28:19.468Z,99088.00
2023-03-15T14:30:54.128Z,99094.63
2023-03-15T14:33:38.511Z,99105.16
2023-03-15T14:36:10.026Z,99091.47
2023-03-15T14:38:38.836Z,99085.09
2023-03-15T14:41:19.956Z,99097.81
2023-03-15T14:43:46.654Z,99092.22
2023-03-15T14:46:13.348Z,99100.16
2023-03-15T14:48:40.204Z,99110.06
2023-03-15T14:51:07.075Z,99104.84
2023-03-15T14:53:37.662Z,99112.94
2023-03-15T14:56:05.394Z,99113.97
2023-03-15T14:58:32.850Z,99120.97
2023-03-15T15:00:59.706Z,99117.66
2023-03-15T15:03:34.083Z,99122.88
2023-03-15T15:06:23.081Z,99127.13
2023-03-15T15:08:52.599Z,99124.19
2023-03-15T15:11:19.296Z,99134.94
2023-03-15T15:13:45.930Z,99132.13
2023-03-15T15:16:12.638Z,99133.41
2023-03-15T15:18:39.354Z,99139.44
2023-03-15T15:21:22.552Z,99137.50
2023-03-15T15:23:58.295Z,99135.56
2023-03-15T15:26:27.851Z,99145.25
2023-03-15T15:28:54.750Z,99135.81
2023-03-15T15:31:23.341Z,99140.19
2023-03-15T15:33:51.147Z,99147.50
2023-03-15T15:36:27.216Z,99137.31
2023-03-15T15:38:54.119Z,99139.81
2023-03-15T15:41:26.262Z,99142.78
2023-03-15T15:43:53.296Z,99141.47
2023-03-15T15:46:20.255Z,99145.31
2023-03-15T15:48:46.979Z,99146.06
2023-03-15T15:51:28.524Z,99154.09
2023-03-15T15:53:58.032Z,99151.78
2023-03-15T15:56:31.270Z,99159.13
2023-03-15T15:58:58.638Z,99157.56
2023-03-15T16:01:25.665Z,99161.22
2023-03-15T16:03:52.679Z,99165.16
2023-03-15T16:06:21.527Z,99157.66
2023-03-15T16:08:50.930Z,99166.66
2023-03-15T16:11:17.911Z,99165.25
2023-03-15T16:13:46.087Z,99166.66
2023-03-15T16:16:14.996Z,99173.53
2023-03-15T16:18:42.968Z,99168.50
2023-03-15T16:21:18.862Z,99183.41
2023-03-15T16:23:48.283Z,99186.78
2023-03-15T16:26:16.375Z,99191.44
2023-03-15T16:28:44.417Z,99198.16
2023-03-15T16:31:12.818Z,99193.97
2023-03-15T16:33:39.848Z,99193.94
2023-03-15T16:36:06.901Z,99203.22
2023-03-15T16:38:33.679Z,99202.50
2023-03-15T16:41:01.145Z,99210.78
2023-03-15T16:43:28.941Z,99213.81
2023-03-15T16:45:55.756Z,99217.97
2023-03-15T16:48:22.408Z,99229.72
2023-03-15T16:50:49.153Z,99246.38
2023-03-15T16:53:15.869Z,99249.88
2023-03-15T16:55:42.549Z,99242.81
2023-03-15T16:58:17.832Z,99250.72
2023-03-15T17:00:47.102Z,99252.19
2023-03-15T17:03:15.176Z,99246.13
2023-03-15T17:05:43.954Z,99252.19
2023-03-15T17:08:12.931Z,99258.63
2023-03-15T17:10:40.754Z,99262.19
2023-03-15T17:13:07.873Z,99262.00
2023-03-15T17:15:34.523Z,99260.94
2023-03-15T17:18:02.899Z,99268.84
2023-03-15T17:20:29.728Z,99258.53
2023-03-15T17:23:04.105Z,99277.50
2023-03-15T17:25:31.503Z,99274.66
2023-03-15T17:27:58.176Z,99286.13
2023-03-15T17:30:27.864Z,99284.66
2023-03-15T17:32:55.013Z,99280.81
2023-03-15T17:35:23.793Z,99284.03
2023-03-15T17:37:50.871Z,99289.44
2023-03-15T17:40:21.590Z,99291.72
2023-03-15T17:42:49.229Z,99290.47
2023-03-15T17:45:33.418Z,99304.84
2023-03-15T17:48:00.817Z,99298.91
2023-03-15T17:50:30.199Z,99299.19
2023-03-15T17:52:58.947Z,99302.03
2023-03-15T17:55:27.054Z,99309.53
2023-03-15T17:57:55.364Z,99309.69
2023-03-15T18:00:23.400Z,99311.13
2023-03-15T18:02:55.559Z,99315.53
2023-03-15T18:05:27.581Z,99319.88
2023-03-15T18:07:59.310Z,99315.63
2023-03-15T18:10:32.023Z,99327.34
2023-03-15T18:12:58.787Z,99332.28
2023-03-15T18:15:25.547Z,99320.13
2023-03-15T18:17:52.236Z,99336.00
2023-03-15T18:20:22.292Z,99337.69
2023-03-15T18:22:49.006Z,99334.69
2023-03-15T18:25:24.859Z,99343.81
2023-03-15T18:27:51.805Z,99345.75
2023-03-15T18:30:21.452Z,99347.41
2023-03-15T18:32:49.141Z,99349.16
2023-03-15T18:35:19.127Z,99350.56
2023-03-15T18:37:46.208Z,99357.69
2023-03-15T18:40:15.118Z,99350.88
2023-03-15T18:42:42.990Z,99361.63
2023-03-15T18:45:25.494Z,99364.06
2023-03-15T18:47:54.764Z,99357.59
2023-03-15T18:50:23.383Z,99361.81
2023-03-15T18:52:50.471Z,99365.78
2023-03-15T18:55:18.758Z,99363.94
2023-03-15T18:57:47.713Z,99365.47
2023-03-15T19:00:26.689Z,99366.28
2023-03-15T19:02:55.145Z,99372.31
2023-03-15T19:05:22.304Z,99376.66
2023-03-15T19:07:49.014Z,99371.28
2023-03-15T19:10:19.385Z,99372.00
2023-03-15T19:12:47.220Z,99380.66
2023-03-15T19:15:17.673Z,99376.31
2023-03-15T19:17:46.093Z,99384.38
2023-03-15T19:20:22.867Z,99376.06
2023-03-15T19:22:52.108Z,99387.88
2023-03-15T19:25:19.996Z,99389.53
2023-03-15T19:27:46.916Z,99390.28
2023-03-15T19:30:18.274Z,99390.38
2023-03-15T19:32:46.978Z,99384.84
2023-03-15T19:35:13.961Z,99393.03
2023-03-15T19:37:45.804Z,99390.38
2023-03-15T19:40:16.310Z,99395.63
2023-03-15T19:42:48.088Z,99389.59
2023-03-15T19:45:15.992Z,99389.41
2023-03-15T19:47:42.638Z,99405.88
2023-03-15T19:50:11.222Z,99408.72
2023-03-15T19:52:42.467Z,99409.25
2023-03-15T19:55:09.756Z,99423.28
2023-03-15T19:57:36.733Z,99420.09
2023-03-15T20:00:04.133Z,99429.16
2023-03-15T20:02:33.090Z,99421.50
2023-03-15T20:05:00.599Z,99425.50
2023-03-15T20:07:27.322Z,99431.81
2023-03-15T20:09:54.002Z,99433.19
2023-03-15T20:12:25.223Z,99432.13
2023-03-15T20:14:51.932Z,99440.50
2023-03-15T20:17:23.665Z,99442.19
2023-03-15T20:19:50.392Z,99435.66
2023-03-15T20:22:18.579Z,99453.38
2023-03-15T20:24:46.058Z,99449.72
2023-03-15T20:27:13.473Z,99454.34
2023-03-15T20:34:44.127Z,99469.97
2023-03-15T20:37:13.643Z,99464.91
2023-03-15T20:39:43.909Z,99472.16
2023-03-15T20:42:10.883Z,99466.00
2023-03-15T20:44:37.662Z,99467.00
2023-03-15T20:47:09.368Z,99469.47
2023-03-15T20:49:36.386Z,99468.34
2023-03-15T20:52:03.799Z,99470.31
2023-03-15T20:54:36.276Z,99466.50
2023-03-15T20:57:04.895Z,99475.81
2023-03-15T20:59:32.323Z,99476.25
2023-03-15T21:01:59.027Z,99478.84
2023-03-15T21:04:28.814Z,99479.31
2023-03-15T21:06:57.116Z,99494.81
2023-03-15T21:09:24.022Z,99493.22
2023-03-15T21:11:50.826Z,99487.50
2023-03-15T21:14:17.571Z,99481.84
2023-03-15T21:16:44.225Z,99494.03
2023-03-15T21:19:11.116Z,99489.41
2023-03-15T21:21:38.076Z,99493.63
2023-03-15T21:24:06.666Z,99494.94
2023-03-15T21:26:33.408Z,99495.06
2023-03-15T21:29:00.218Z,99492.06
2023-03-15T21:31:27.010Z,99487.31
2023-03-15T21:33:53.640Z,99492.19
2023-03-15T21:36:20.647Z,99490.25
2023-03-15T21:38:48.464Z,99493.75
2023-03-15T21:41:15.197Z,99488.50
2023-03-15T21:43:41.877Z,99487.41
2023-03-15T21:46:12.165Z,99487.59
2023-03-15T21:48:39.017Z,99493.31
2023-03-15T21:51:06.959Z,99489.19
2023-03-15T21:53:34.315Z,99490.75
2023-03-15T21:56:01.663Z,99494.25
2023-03-15T21:58:29.460Z,99485.50
2023-03-15T22:01:04.807Z,99495.66
2023-03-15T22:03:32.855Z,99489.56
2023-03-15T22:05:59.550Z,99507.16
2023-03-15T22:08:26.743Z,99504.75
2023-03-15T22:10:54.567Z,99505.47
2023-03-15T22:13:21.705Z,99495.50
2023-03-15T22:15:48.489Z,99499.78
2023-03-15T22:18:16.075Z,99494.69
2023-03-15T22:20:42.847Z,99503.88
2023-03-15T22:23:09.508Z,99502.09
2023-03-15T22:25:39.299Z,99506.13
2023-03-15T22:28:06.555Z,99500.78
2023-03-15T22:30:33.325Z,99505.63
2023-03-15T22:33:00.212Z,99504.88
2023-03-15T22:35:26.976Z,99500.94
2023-03-15T22:37:57.254Z,99502.00
2023-03-15T22:40:25.783Z,99510.13
2023-03-15T22:42:53.015Z,99507.00
2023-03-15T22:45:21.070Z,99499.31
2023-03-15T22:47:49.236Z,99507.56
2023-03-15T22:50:16.739Z,99511.69
2023-03-15T22:52:44.140Z,99510.09
2023-03-15T22:55:11.880Z,99515.00
2023-03-15T22:57:38.833Z,99514.09
2023-03-15T23:00:14.090Z,99521.75
2023-03-15T23:02:42.058Z,99521.38
2023-03-15T23:05:09.335Z,99517.31
2023-03-15T23:07:36.165Z,99518.28
2023-03-15T23:10:03.891Z,99520.03
2023-03-15T23:12:36.156Z,99517.44
2023-03-15T23:15:04.510Z,99525.13
2023-03-15T23:17:31.629Z,99519.91
2023-03-15T23:19:58.342Z,99518.28
2023-03-15T23:22:25.166Z,99525.47
2023-03-15T23:24:51.944Z,99520.28
2023-03-15T23:27:18.707Z,99524.44
2023-03-15T23:29:54.152Z,99523.72
2023-03-15T23:32:21.746Z,99522.78
2023-03-15T23:34:48.739Z,99521.03
2023-03-15T23:37:15.553Z,99528.47
2023-03-15T23:39:43.083Z,99526.34
2023-03-15T23:42:10.654Z,99527.31
2023-03-15T23:44:37.891Z,99535.88
2023-03-15T23:47:05.907Z,99531.72
2023-03-15T23:49:33.159Z,99535.47
2023-03-15T23:52:06.045Z,99538.00
2023-03-15T23:54:41.397Z,99551.00
2023-03-15T23:57:10.005Z,99538.88
2023-03-15T23:59:37.300Z,99541.19
